createdAt,value
2022-10-17T00:00:30.077Z,1.90
2022-10-17T00:02:56.897Z,2.05
2022-10-17T00:05:23.894Z,2.42
2022-10-17T00:07:50.768Z,2.25
2022-10-17T00:10:17.322Z,2.50
2022-10-17T00:12:43.872Z,2.40
2022-10-17T00:15:14.396Z,1.98
2022-10-17T00:17:41.951Z,1.90
2022-10-17T00:20:08.585Z,2.40
2022-10-17T00:25:06.875Z,1.80
2022-10-17T00:27:37.706Z,2.35
2022-10-17T00:30:07.403Z,2.40
2022-10-17T00:32:33.843Z,2.22
2022-10-17T00:35:00.581Z,2.40
2022-10-17T00:37:26.969Z,3.90
2022-10-17T00:39:54.343Z,4.28
2022-10-17T00:42:20.823Z,3.65
2022-10-17T00:44:47.586Z,3.33
2022-10-17T00:47:19.427Z,3.65
2022-10-17T00:49:46.239Z,3.67
2022-10-17T00:52:17.790Z,3.65
2022-10-17T00:54:49.437Z,3.78
2022-10-17T00:57:16.837Z,3.92
2022-10-17T00:59:47.550Z,3.50
2022-10-17T01:02:16.634Z,4.18
2022-10-17T01:04:46.671Z,3.70
2022-10-17T01:07:13.385Z,3.80
2022-10-17T01:09:41.362Z,3.05
2022-10-17T01:12:27.962Z,3.63
2022-10-17T01:14:54.369Z,3.78
2022-10-17T01:17:39.149Z,3.90
2022-10-17T01:20:30.274Z,3.60
2022-10-17T01:23:28.687Z,3.72
2022-10-17T01:26:24.905Z,3.72
2022-10-17T01:29:59.252Z,3.20
2022-10-17T01:32:38.985Z,3.72
2022-10-17T01:35:21.889Z,3.13
2022-10-17T01:38:18.801Z,3.30
2022-10-17T01:40:50.878Z,4.03
2022-10-17T01:43:24.370Z,3.15
2022-10-17T01:46:00.559Z,2.95
2022-10-17T01:48:34.503Z,2.97
2022-10-17T01:51:11.378Z,3.00
2022-10-17T01:53:45.548Z,3.03
2022-10-17T01:56:14.411Z,3.60
2022-10-17T01:58:47.431Z,3.33
2022-10-17T02:01:14.145Z,2.60
2022-10-17T02:03:43.657Z,3.35
2022-10-17T02:06:10.041Z,2.97
2022-10-17T02:08:50.877Z,2.83
2022-10-17T02:11:22.731Z,2.88
2022-10-17T02:14:07.983Z,2.78
2022-10-17T02:16:46.774Z,2.83
2022-10-17T02:19:36.628Z,2.30
2022-10-17T02:22:06.010Z,2.50
2022-10-17T02:24:55.175Z,2.50
2022-10-17T02:27:39.807Z,3.53
2022-10-17T02:30:12.561Z,2.88
2022-10-17T02:33:11.034Z,3.03
2022-10-17T02:35:43.379Z,3.47
2022-10-17T02:38:12.385Z,2.80
2022-10-17T02:40:40.863Z,3.65
2022-10-17T02:43:07.801Z,2.65
2022-10-17T02:45:37.186Z,3.28
2022-10-17T02:48:13.875Z,3.20
2022-10-17T02:51:08.775Z,2.72
2022-10-17T02:53:46.112Z,2.50
2022-10-17T02:56:21.638Z,3.10
2022-10-17T02:58:55.941Z,4.10
2022-10-17T03:01:22.897Z,3.17
2022-10-17T03:03:49.347Z,3.53
2022-10-17T03:06:15.883Z,3.83
2022-10-17T03:08:42.338Z,3.40
2022-10-17T03:11:11.486Z,3.72
2022-10-17T03:13:39.828Z,3.08
2022-10-17T03:16:06.639Z,3.88
2022-10-17T03:18:33.038Z,3.45
2022-10-17T03:20:59.495Z,3.58
2022-10-17T03:23:25.906Z,3.15
2022-10-17T03:25:52.286Z,3.33
2022-10-17T03:28:18.666Z,3.83
2022-10-17T03:30:45.030Z,3.53
2022-10-17T03:33:11.680Z,3.60
2022-10-17T03:35:40.303Z,3.50
2022-10-17T03:38:06.788Z,3.45
2022-10-17T03:40:33.169Z,3.40
2022-10-17T03:42:59.637Z,4.00
2022-10-17T03:45:26.010Z,3.63
2022-10-17T03:47:52.504Z,3.55
2022-10-17T03:50:18.883Z,3.72
2022-10-17T03:52:49.169Z,3.28
2022-10-17T03:55:16.445Z,3.30
2022-10-17T03:57:45.406Z,3.15
2022-10-17T04:00:13.047Z,3.15
2022-10-17T04:02:39.553Z,3.42
2022-10-17T04:05:06.599Z,3.63
2022-10-17T04:07:33.024Z,3.35
2022-10-17T04:09:59.404Z,3.17
2022-10-17T04:12:25.820Z,3.25
2022-10-17T04:14:52.224Z,2.90
2022-10-17T04:17:18.682Z,3.17
2022-10-17T04:19:45.063Z,2.75
2022-10-17T04:22:11.480Z,3.13
2022-10-17T04:24:37.929Z,3.22
2022-10-17T04:27:04.320Z,3.28
2022-10-17T04:29:30.706Z,3.67
2022-10-17T04:31:57.214Z,3.38
2022-10-17T04:34:23.604Z,3.42
2022-10-17T04:36:51.796Z,3.80
2022-10-17T04:39:18.425Z,3.22
2022-10-17T04:41:44.880Z,3.63
2022-10-17T04:44:11.447Z,3.28
2022-10-17T04:46:37.987Z,3.78
2022-10-17T04:49:04.827Z,4.03
2022-10-17T04:51:31.206Z,3.38
2022-10-17T04:53:57.665Z,3.60
2022-10-17T04:56:25.051Z,3.42
2022-10-17T04:58:51.992Z,3.40
2022-10-17T05:01:22.205Z,3.22
2022-10-17T05:03:48.967Z,3.53
2022-10-17T05:06:22.183Z,3.33
2022-10-17T05:08:49.246Z,3.08
2022-10-17T05:11:27.101Z,2.90
2022-10-17T05:13:55.521Z,2.97
2022-10-17T05:16:22.365Z,3.42
2022-10-17T05:18:52.920Z,3.83
2022-10-17T05:21:20.922Z,3.55
2022-10-17T05:23:47.492Z,3.28
2022-10-17T05:26:14.692Z,3.45
2022-10-17T05:28:41.525Z,4.18
2022-10-17T05:31:09.819Z,3.70
2022-10-17T05:33:37.392Z,4.22
2022-10-17T05:36:04.391Z,3.92
2022-10-17T05:38:30.851Z,3.90
2022-10-17T05:41:02.606Z,3.75
2022-10-17T05:43:29.672Z,3.97
2022-10-17T05:45:56.130Z,3.97
2022-10-17T05:48:23.698Z,3.83
2022-10-17T05:50:50.102Z,3.83
2022-10-17T05:53:17.099Z,5.10
2022-10-17T05:55:43.539Z,4.38
2022-10-17T05:58:17.612Z,4.10
2022-10-17T06:00:48.712Z,4.75
2022-10-17T06:03:15.131Z,3.88
2022-10-17T06:05:41.697Z,4.43
2022-10-17T06:08:08.129Z,4.47
2022-10-17T06:10:34.533Z,4.07
2022-10-17T06:13:01.003Z,3.95
2022-10-17T06:15:27.473Z,4.75
2022-10-17T06:17:53.852Z,4.82
2022-10-17T06:20:20.272Z,4.85
2022-10-17T06:22:46.656Z,4.10
2022-10-17T06:25:13.128Z,4.72
2022-10-17T06:27:40.013Z,4.43
2022-10-17T06:30:07.004Z,3.70
2022-10-17T06:32:33.476Z,2.55
2022-10-17T06:34:59.922Z,3.95
2022-10-17T06:37:26.559Z,3.20
2022-10-17T06:39:53.622Z,2.63
2022-10-17T06:42:20.018Z,2.45
2022-10-17T06:44:46.380Z,2.70
2022-10-17T06:47:15.415Z,2.15
2022-10-17T06:49:44.396Z,2.22
2022-10-17T06:52:11.055Z,2.15
2022-10-17T06:54:37.477Z,2.33
2022-10-17T06:57:03.894Z,2.40
2022-10-17T06:59:30.257Z,2.38
2022-10-17T07:01:56.726Z,2.30
2022-10-17T07:04:23.092Z,2.13
2022-10-17T07:06:49.609Z,2.20
2022-10-17T07:09:17.042Z,2.30
2022-10-17T07:11:43.419Z,2.40
2022-10-17T07:14:10.119Z,3.25
2022-10-17T07:16:36.936Z,2.33
2022-10-17T07:19:03.697Z,2.15
2022-10-17T07:21:32.086Z,2.42
2022-10-17T07:24:00.325Z,2.55
2022-10-17T07:26:26.795Z,2.25
2022-10-17T07:28:55.320Z,3.20
2022-10-17T07:31:23.437Z,2.35
2022-10-17T07:33:50.604Z,2.10
2022-10-17T07:36:17.787Z,2.78
2022-10-17T07:38:44.552Z,2.42
2022-10-17T07:41:16.522Z,2.70
2022-10-17T07:43:45.886Z,2.08
2022-10-17T07:46:12.673Z,2.67
2022-10-17T07:48:40.045Z,2.30
2022-10-17T07:51:08.042Z,1.95
2022-10-17T07:53:39.181Z,2.25
2022-10-17T07:56:07.658Z,2.08
2022-10-17T07:58:35.006Z,2.47
2022-10-17T08:01:08.428Z,2.13
2022-10-17T08:03:37.426Z,2.47
2022-10-17T08:06:03.993Z,2.22
2022-10-17T08:08:30.425Z,2.33
2022-10-17T08:11:02.568Z,1.88
2022-10-17T08:13:29.077Z,2.28
2022-10-17T08:15:59.667Z,2.20
2022-10-17T08:18:26.121Z,2.08
2022-10-17T08:20:55.643Z,2.10
2022-10-17T08:23:24.404Z,1.90
2022-10-17T08:25:50.808Z,1.80
2022-10-17T08:28:17.220Z,1.70
2022-10-17T08:30:43.712Z,2.10
2022-10-17T08:33:10.092Z,2.30
2022-10-17T08:35:36.554Z,1.77
2022-10-17T08:38:03.358Z,1.50
2022-10-17T08:40:35.444Z,2.28
2022-10-17T08:43:35.391Z,1.95
2022-10-17T08:46:05.395Z,1.73
2022-10-17T08:48:42.613Z,1.70
2022-10-17T08:51:23.025Z,1.60
2022-10-17T08:54:02.246Z,2.13
2022-10-17T08:56:55.474Z,2.05
2022-10-17T08:59:29.380Z,1.65
2022-10-17T09:02:16.107Z,1.90
2022-10-17T09:04:45.661Z,1.90
2022-10-17T09:07:11.994Z,1.75
2022-10-17T09:09:58.359Z,2.33
2022-10-17T09:12:41.631Z,2.30
2022-10-17T09:18:17.605Z,1.60
2022-10-17T09:20:52.000Z,1.88
2022-10-17T09:23:27.042Z,1.60
2022-10-17T09:25:56.586Z,1.98
2022-10-17T09:28:36.125Z,1.70
2022-10-17T09:31:19.413Z,1.80
2022-10-17T09:36:38.393Z,1.90
2022-10-17T09:39:10.612Z,1.58
2022-10-17T09:41:46.004Z,1.90
2022-10-17T09:44:19.417Z,1.65
2022-10-17T09:46:51.813Z,1.60
2022-10-17T09:49:23.248Z,1.65
2022-10-17T09:51:49.865Z,1.80
2022-10-17T09:54:26.478Z,1.80
2022-10-17T09:57:05.076Z,1.80
2022-10-17T09:59:35.065Z,1.73
2022-10-17T10:02:29.404Z,1.55
2022-10-17T10:05:07.405Z,3.90
2022-10-17T10:07:38.999Z,2.00
2022-10-17T10:10:25.437Z,1.63
2022-10-17T10:13:14.926Z,1.95
2022-10-17T10:15:47.115Z,2.00
2022-10-17T10:18:25.429Z,1.80
2022-10-17T10:21:22.323Z,1.67
2022-10-17T10:24:10.729Z,1.70
2022-10-17T10:26:48.783Z,1.45
2022-10-17T10:29:30.878Z,1.75
2022-10-17T10:32:21.706Z,2.00
2022-10-17T10:35:00.005Z,1.80
2022-10-17T10:37:30.577Z,1.92
2022-10-17T10:40:18.525Z,1.90
2022-10-17T10:42:50.093Z,1.60
2022-10-17T10:48:26.033Z,1.65
2022-10-17T10:51:16.409Z,1.60
2022-10-17T10:54:04.634Z,1.65
2022-10-17T10:56:31.087Z,1.55
2022-10-17T10:59:09.525Z,1.98
2022-10-17T11:01:57.890Z,1.67
2022-10-17T11:04:49.744Z,1.85
2022-10-17T11:07:34.586Z,1.50
2022-10-17T11:10:49.297Z,1.73
2022-10-17T11:13:21.243Z,1.90
2022-10-17T11:15:58.301Z,1.90
2022-10-17T11:18:30.042Z,1.80
2022-10-17T11:21:05.342Z,1.52
2022-10-17T11:24:19.796Z,1.58
2022-10-17T11:27:00.807Z,2.53
2022-10-17T11:29:33.633Z,1.77
2022-10-17T11:34:51.536Z,1.60
2022-10-17T11:37:23.481Z,1.83
2022-10-17T11:40:00.062Z,1.70
2022-10-17T11:42:33.057Z,1.95
2022-10-17T11:45:05.652Z,1.60
2022-10-17T11:47:45.565Z,1.90
2022-10-17T11:53:20.645Z,1.60
2022-10-17T11:55:48.071Z,1.67
2022-10-17T11:58:30.141Z,1.67
2022-10-17T12:01:16.057Z,1.60
2022-10-17T12:04:01.515Z,1.65
2022-10-17T12:06:52.708Z,1.73
2022-10-17T12:09:32.260Z,1.55
2022-10-17T12:12:02.423Z,1.80
2022-10-17T12:14:38.519Z,1.63
2022-10-17T12:17:24.086Z,1.67
2022-10-17T12:19:50.778Z,1.63
2022-10-17T12:22:35.359Z,1.48
2022-10-17T12:25:03.836Z,1.63
2022-10-17T12:27:39.857Z,1.38
2022-10-17T12:30:12.969Z,1.90
2022-10-17T12:33:06.099Z,1.70
2022-10-17T12:35:36.721Z,1.67
2022-10-17T12:38:18.973Z,1.42
2022-10-17T12:40:49.006Z,1.48
2022-10-17T12:43:15.569Z,1.40
2022-10-17T12:45:54.084Z,1.42
2022-10-17T12:48:39.397Z,1.90
2022-10-17T12:51:35.309Z,1.67
2022-10-17T12:54:10.560Z,2.97
2022-10-17T12:56:46.441Z,2.13
2022-10-17T12:59:29.010Z,2.42
2022-10-17T13:04:26.844Z,1.75
2022-10-17T13:06:57.090Z,1.70
2022-10-17T13:09:31.256Z,1.58
2022-10-17T13:12:04.497Z,2.15
2022-10-17T13:14:33.198Z,1.98
2022-10-17T13:17:02.572Z,2.60
2022-10-17T13:19:39.535Z,1.50
2022-10-17T13:22:17.192Z,2.00
2022-10-17T13:24:44.230Z,1.90
2022-10-17T13:27:22.739Z,2.78
2022-10-17T13:29:49.434Z,1.40
2022-10-17T13:32:16.085Z,1.40
2022-10-17T13:34:42.980Z,1.77
2022-10-17T13:37:15.492Z,1.98
2022-10-17T13:39:55.292Z,1.67
2022-10-17T13:42:31.355Z,1.80
2022-10-17T13:44:59.292Z,1.70
2022-10-17T13:47:28.314Z,1.63
2022-10-17T13:49:55.866Z,1.92
2022-10-17T13:52:25.623Z,1.90
2022-10-17T13:54:53.585Z,1.58
2022-10-17T13:57:22.856Z,1.70
2022-10-17T13:59:52.597Z,1.60
2022-10-17T14:02:27.763Z,1.60
2022-10-17T14:05:22.991Z,1.60
2022-10-17T14:08:11.334Z,1.80
2022-10-17T14:10:41.390Z,2.13
2022-10-17T14:13:22.973Z,1.90
2022-10-17T14:15:50.553Z,2.00
2022-10-17T14:18:24.352Z,2.28
2022-10-17T14:23:43.541Z,1.70
2022-10-17T14:26:22.350Z,1.88
2022-10-17T14:29:03.063Z,2.22
2022-10-17T14:31:35.206Z,2.15
2022-10-17T14:34:04.237Z,1.80
2022-10-17T14:36:37.778Z,1.90
2022-10-17T14:39:11.904Z,2.15
2022-10-17T14:41:45.316Z,2.47
2022-10-17T14:44:35.207Z,1.83
2022-10-17T14:47:30.254Z,1.50
2022-10-17T14:50:03.955Z,2.05
2022-10-17T14:52:31.948Z,1.75
2022-10-17T14:55:00.390Z,3.30
2022-10-17T14:57:31.740Z,2.83
2022-10-17T14:59:58.667Z,2.10
2022-10-17T15:02:27.640Z,2.30
2022-10-17T15:04:54.738Z,1.85
2022-10-17T15:07:22.189Z,2.00
2022-10-17T15:09:50.634Z,2.20
2022-10-17T15:12:20.150Z,2.08
2022-10-17T15:14:48.514Z,1.77
2022-10-17T15:17:20.508Z,2.72
2022-10-17T15:19:48.159Z,1.85
2022-10-17T15:22:16.338Z,2.25
2022-10-17T15:24:43.062Z,2.17
2022-10-17T15:27:18.401Z,2.00
2022-10-17T15:29:45.927Z,2.30
2022-10-17T15:32:12.926Z,2.13
2022-10-17T15:34:39.458Z,2.08
2022-10-17T15:37:07.498Z,2.63
2022-10-17T15:39:33.936Z,2.28
2022-10-17T15:42:00.355Z,1.92
2022-10-17T15:44:26.833Z,2.20
2022-10-17T15:46:55.511Z,2.20
2022-10-17T15:49:21.960Z,1.88
2022-10-17T15:51:51.734Z,3.15
2022-10-17T15:56:55.302Z,3.00
2022-10-17T15:59:33.289Z,4.35
2022-10-17T16:01:59.716Z,6.78
2022-10-17T16:04:27.600Z,3.13
2022-10-17T16:06:54.006Z,3.03
2022-10-17T16:09:20.397Z,2.50
2022-10-17T16:11:46.832Z,6.60
2022-10-17T16:14:15.821Z,3.22
2022-10-17T16:16:42.617Z,3.67
2022-10-17T16:19:09.385Z,2.50
2022-10-17T16:21:38.830Z,2.22
2022-10-17T16:24:06.287Z,2.40
2022-10-17T16:26:32.949Z,2.38
2022-10-17T16:29:02.889Z,2.47
2022-10-17T16:31:35.390Z,2.83
2022-10-17T16:34:04.199Z,4.50
2022-10-17T16:36:30.636Z,5.13
2022-10-17T16:38:57.328Z,6.93
2022-10-17T16:41:29.333Z,3.28
2022-10-17T16:44:03.353Z,3.25
2022-10-17T16:46:31.142Z,2.50
2022-10-17T16:48:58.566Z,4.15
2022-10-17T16:51:25.699Z,3.08
2022-10-17T16:53:54.357Z,4.00
2022-10-17T16:56:23.110Z,3.38
2022-10-17T16:58:50.319Z,3.17
2022-10-17T17:01:19.840Z,3.03
2022-10-17T17:03:47.260Z,2.40
2022-10-17T17:06:26.306Z,3.53
2022-10-17T17:08:54.026Z,2.55
2022-10-17T17:11:22.126Z,3.42
2022-10-17T17:13:48.774Z,2.40
2022-10-17T17:16:18.163Z,2.45
2022-10-17T17:18:46.048Z,2.17
2022-10-17T17:21:12.657Z,2.80
2022-10-17T17:23:41.672Z,2.70
2022-10-17T17:26:16.740Z,2.45
2022-10-17T17:28:44.062Z,2.65
2022-10-17T17:31:13.163Z,3.10
2022-10-17T17:33:40.825Z,2.75
2022-10-17T17:36:08.685Z,3.10
2022-10-17T17:38:36.387Z,2.17
2022-10-17T17:41:03.794Z,3.10
2022-10-17T17:43:30.595Z,2.95
2022-10-17T17:45:57.066Z,2.90
2022-10-17T17:48:23.550Z,3.00
2022-10-17T17:50:49.986Z,2.60
2022-10-17T17:53:17.701Z,2.70
2022-10-17T17:55:44.990Z,3.08
2022-10-17T17:58:12.602Z,3.22
2022-10-17T18:00:40.570Z,3.45
2022-10-17T18:03:07.387Z,3.35
2022-10-17T18:05:33.873Z,3.50
2022-10-17T18:08:00.237Z,3.53
2022-10-17T18:10:28.451Z,3.63
2022-10-17T18:12:54.831Z,3.80
2022-10-17T18:15:21.291Z,4.28
2022-10-17T18:17:47.752Z,4.95
2022-10-17T18:20:14.142Z,6.20
2022-10-17T18:22:40.622Z,5.45
2022-10-17T18:25:07.534Z,5.20
2022-10-17T18:27:33.934Z,3.65
2022-10-17T18:30:00.350Z,4.20
2022-10-17T18:32:30.086Z,4.10
2022-10-17T18:34:56.758Z,4.13
2022-10-17T18:37:23.266Z,3.90
2022-10-17T18:39:51.590Z,3.38
2022-10-17T18:42:18.621Z,4.32
2022-10-17T18:44:46.961Z,3.33
2022-10-17T18:47:13.390Z,4.28
2022-10-17T18:49:39.772Z,3.08
2022-10-17T18:52:06.157Z,2.92
2022-10-17T18:54:33.518Z,3.28
2022-10-17T18:56:59.973Z,4.38
2022-10-17T18:59:26.435Z,3.50
2022-10-17T19:01:52.903Z,4.32
2022-10-17T19:04:19.496Z,4.50
2022-10-17T19:06:46.016Z,3.97
2022-10-17T19:09:13.995Z,3.40
2022-10-17T19:11:42.122Z,3.38
2022-10-17T19:14:13.088Z,3.47
2022-10-17T19:16:46.385Z,3.65
2022-10-17T19:19:18.804Z,3.65
2022-10-17T19:21:46.056Z,3.50
2022-10-17T19:24:16.031Z,3.28
2022-10-17T19:26:43.991Z,3.40
2022-10-17T19:29:13.876Z,3.05
2022-10-17T19:31:44.048Z,3.55
2022-10-17T19:34:12.159Z,3.72
2022-10-17T19:36:38.819Z,2.97
2022-10-17T19:39:09.241Z,3.53
2022-10-17T19:41:38.363Z,3.50
2022-10-17T19:44:04.898Z,3.28
2022-10-17T19:46:33.853Z,3.78
2022-10-17T19:49:01.100Z,3.75
2022-10-17T19:51:29.010Z,3.80
2022-10-17T19:53:57.444Z,3.20
2022-10-17T19:56:25.099Z,3.58
2022-10-17T19:58:53.965Z,3.88
2022-10-17T20:01:32.350Z,3.40
2022-10-17T20:03:58.867Z,3.42
2022-10-17T20:06:25.655Z,3.53
2022-10-17T20:08:52.370Z,3.70
2022-10-17T20:11:22.808Z,3.35
2022-10-17T20:13:49.613Z,3.50
2022-10-17T20:16:22.931Z,3.72
2022-10-17T20:18:50.924Z,3.00
2022-10-17T20:21:20.561Z,3.75
2022-10-17T20:23:47.933Z,4.05
2022-10-17T20:29:05.410Z,3.67
2022-10-17T20:31:31.970Z,3.08
2022-10-17T20:33:59.842Z,3.38
2022-10-17T20:36:26.800Z,3.33
2022-10-17T20:38:57.961Z,4.38
2022-10-17T20:41:26.028Z,4.30
2022-10-17T20:43:54.276Z,3.58
2022-10-17T20:46:35.901Z,3.70
2022-10-17T20:49:04.087Z,4.47
2022-10-17T20:51:30.627Z,4.13
2022-10-17T20:56:30.495Z,3.90
2022-10-17T20:59:00.238Z,3.35
2022-10-17T21:01:27.674Z,3.40
2022-10-17T21:03:54.252Z,3.92
2022-10-17T21:06:21.903Z,4.25
2022-10-17T21:08:49.153Z,4.57
2022-10-17T21:11:18.321Z,4.55
2022-10-17T21:13:45.838Z,5.55
2022-10-17T21:16:18.241Z,6.53
2022-10-17T21:18:45.699Z,5.20
2022-10-17T21:21:14.978Z,6.38
2022-10-17T21:23:44.274Z,5.85
2022-10-17T21:26:12.692Z,4.72
2022-10-17T21:28:43.550Z,4.70
2022-10-17T21:31:20.701Z,4.55
2022-10-17T21:33:50.395Z,4.00
2022-10-17T21:36:18.020Z,4.03
2022-10-17T21:38:46.665Z,3.95
2022-10-17T21:41:15.111Z,3.30
2022-10-17T21:43:43.189Z,3.95
2022-10-17T21:46:12.786Z,4.50
2022-10-17T21:48:39.375Z,4.22
2022-10-17T21:51:09.955Z,3.92
2022-10-17T21:53:37.217Z,3.75
2022-10-17T21:56:09.635Z,3.67
2022-10-17T21:58:36.330Z,4.25
2022-10-17T22:01:05.931Z,5.07
2022-10-17T22:03:39.318Z,5.15
2022-10-17T22:06:37.683Z,6.57
2022-10-17T22:08:55.413Z,5.65
2022-10-17T22:11:25.412Z,5.32
2022-10-17T22:13:57.273Z,6.07
2022-10-17T22:16:24.465Z,5.45
2022-10-17T22:18:51.430Z,6.32
2022-10-17T22:21:20.556Z,6.15
2022-10-17T22:23:54.643Z,5.38
2022-10-17T22:26:21.009Z,6.50
2022-10-17T22:28:47.489Z,5.68
2022-10-17T22:31:14.055Z,5.05
2022-10-17T22:33:40.844Z,5.43
2022-10-17T22:36:08.716Z,5.35
2022-10-17T22:38:35.928Z,4.55
2022-10-17T22:41:03.898Z,4.65
2022-10-17T22:43:30.930Z,3.70
2022-10-17T22:46:02.719Z,4.00
2022-10-17T22:48:30.283Z,4.28
2022-10-17T22:50:58.677Z,4.63
2022-10-17T22:53:26.779Z,4.32
2022-10-17T22:55:54.823Z,4.15
2022-10-17T22:58:22.006Z,3.63
2022-10-17T23:00:49.692Z,4.38
2022-10-17T23:03:16.416Z,3.97
2022-10-17T23:05:43.265Z,4.10
2022-10-17T23:08:09.930Z,4.00
2022-10-17T23:10:36.578Z,7.55
2022-10-17T23:13:03.417Z,16.70
2022-10-17T23:15:31.512Z,6.25
2022-10-17T23:17:58.686Z,4.20
2022-10-17T23:20:25.165Z,4.72
2022-10-17T23:22:51.616Z,3.72
2022-10-17T23:25:18.043Z,3.85
2022-10-17T23:27:44.542Z,4.50
2022-10-17T23:30:11.828Z,4.30
2022-10-17T23:32:39.496Z,4.00
2022-10-17T23:35:06.337Z,4.15
2022-10-17T23:37:33.656Z,3.88
2022-10-17T23:40:00.545Z,3.50
2022-10-17T23:42:27.466Z,4.20
2022-10-17T23:44:53.875Z,3.90
2022-10-17T23:47:20.368Z,4.47
2022-10-17T23:49:46.838Z,3.88
2022-10-17T23:52:13.322Z,4.57
2022-10-17T23:57:11.577Z,3.80
2022-10-17T23:59:38.091Z,4.10
